Menu       Accueil   X °C

Sélectionnez une autre période ( cacher cette zone )

Les unités Période Gamme personnalisée Directement à
métriques impériales les deux
par jour par semaine mensuel annuel
utiliser les deux sélecteurs de date pour une gamme personnalisée
précédente Jour
Avec cette date
par jour Résumé pour Samedi 15 juin 2024
Temps Temp. ( °F ) Pt. de rosée ( °F ) Vent ( mph ) De Rafale ( mph ) Pression baro ( in ) Humid.( % ) Débit de pluie ( in )
Élevé83.1 62.6 14.9 NNO ( 780/1637 ) 16.2 29.85 63 -
Moyenne74.7 55.0 3.7 NNO #71/276 5.5 29.82 51 -
Basse64.9 45.0 -   0.0 29.77 39 -
par jour Détails du tableau pour Samedi 15 juin 2024
Temps Temp. ( °F ) Pt. de rosée ( °F ) Vent ( mph ) De Rafale ( mph ) Pression baro ( in ) Humid.( % ) Débit de pluie ( in )
00:00 75.0 56.7 8.7 NO 14.3 29.83 53 -
00:05 74.8 56.5 0.6 NO 11.2 29.83 53 -
00:10 74.8 56.1 3.1 Ouest 9.3 29.83 52 -
00:15 74.7 55.9 1.9 NO 8.1 29.83 52 -
00:20 74.7 55.9 0.6 ONO 5.0 29.84 52 -
00:25 74.7 55.4   calme 6.8 29.83 51 -
00:30 74.5 55.2   calme 3.1 29.83 51 -
00:35 74.3 55.0   calme 6.2 29.83 51 -
00:40 74.1 53.8   calme 1.9 29.83 49 -
00:45 73.9 53.1   calme 1.2 29.83 48 -
00:50 73.8 52.9   calme 1.2 29.83 48 -
00:55 73.8 52.9 0.6 NO 3.7 29.83 48 -
01:00 73.6 52.2 0.6 ONO 1.9 29.83 47 -
01:05 73.2 50.5   calme 1.2 29.83 45 -
01:10 72.9 50.4 1.9 NNO 3.7 29.83 45 -
01:15 72.9 50.4   calme 1.2 29.83 45 -
01:21 72.7 48.9 1.9 ONO 3.1 29.83 43 -
01:26 72.1 47.1 0.6 Ouest 1.9 29.83 41 -
01:31 71.4 47.8 0.6 OSO 3.7 29.83 43 -
01:36 71.2 48.2 1.9 OSO 3.1 29.83 44 -
01:41 71.2 48.2 0.6 OSO 1.9 29.83 44 -
01:46 71.4 48.4 0.6 OSO 1.9 29.83 44 -
01:51 71.4 48.9   calme 3.1 29.83 45 -
01:56 71.8 49.3 1.9 OSO 1.9 29.83 45 -
02:01 71.6 48.6 1.9 OSO 1.9 29.83 44 -
02:06 71.2 46.4 0.6 SSO 3.7 29.83 41 -
02:11 70.7 46.4 1.9 SSO 1.9 29.83 42 -
02:16 70.3 47.5 0.6 SSO 1.9 29.83 44 -
02:21 69.8 48.0 0.6 SSO 3.1 29.83 46 -
02:26 69.4 47.8 0.6 SSO 1.2 29.83 46 -
02:31 69.3 47.7 0.6 SSO 3.1 29.83 46 -
02:36 68.9 46.8 0.6 SSO 3.1 29.83 45 -
02:41 69.1 46.8   calme 1.9 29.83 45 -
02:46 69.1 46.2 0.6 SSO 1.9 29.83 44 -
02:51 69.1 46.2   calme   29.83 44 -
02:56 68.9 46.8   calme   29.83 45 -
03:01 68.4 46.8 0.6 SSO 1.9 29.83 46 -
03:06 68.0 46.4 1.9 SSO 3.1 29.83 46 -
03:11 68.2 47.1 0.6 SSO 1.9 29.83 47 -
03:16 68.2 46.6 0.6 SSO 3.1 29.83 46 -
03:21 68.0 46.9 0.6 SSO 3.1 29.83 47 -
03:26 67.8 46.9 3.1 SSO 3.1 29.83 47 -
03:31 68.2 47.1 0.6 SSO 3.1 29.83 47 -
03:36 68.5 47.5 0.6 SSO 3.7 29.83 47 -
03:41 69.1 48.6 1.9 SSO 3.7 29.83 48 -
03:46 69.4 49.5 3.1 SSO 5.0 29.83 49 -
03:51 69.6 49.6 1.9 SSO 3.7 29.83 49 -
03:56 69.8 49.8 0.6 SSO 1.9 29.83 49 -
04:01 70.0 50.0   calme 1.2 29.83 49 -
04:06 69.6 48.6 1.9 SSO 3.1 29.83 47 -
04:11 69.1 45.7 1.9 SSO 3.1 29.83 43 -
04:16 68.4 45.0 1.9 SSO 3.7 29.83 43 -
04:21 67.5 45.3 1.9 SSO 3.7 29.83 45 -
04:26 66.9 45.5 0.6 SSO 3.1 29.83 46 -
04:31 66.7 45.9 0.6 SSO 1.9 29.83 47 -
04:36 66.6 45.7 0.6 SSO 1.9 29.82 47 -
04:41 66.4 46.6 3.1 SSO 3.1 29.83 49 -
04:46 66.2 45.9 1.9 SSO 3.1 29.83 48 -
04:51 66.4 46.6 1.9 SSO 3.1 29.83 49 -
04:56 66.4 46.0 0.6 SSO 1.9 29.83 48 -
05:01 66.0 45.7 0.6 SSO 3.1 29.83 48 -
05:06 66.0 45.7 1.9 SSO 1.9 29.83 48 -
05:11 66.0 45.7 1.9 SSO 1.9 29.82 48 -
05:16 66.0 45.7 0.6 SSO 1.2 29.83 48 -
05:21 66.0 46.4 0.6 SSO 1.9 29.83 49 -
05:26 65.8 46.2 1.9 SSO 3.1 29.83 49 -
05:31 65.7 46.6 1.9 SSO 1.9 29.83 50 -
05:36 65.7 46.6 1.9 SSO 1.9 29.83 50 -
05:41 65.3 46.8 1.9 SSO 1.9 29.83 51 -
05:46 65.1 47.1 1.9 SSO 3.1 29.83 52 -
05:51 65.1 47.5 1.9 SSO 3.1 29.83 53 -
05:56 64.9 47.5 3.1 SSO 3.1 29.83 53 -
06:01 64.9 46.9 1.9 SSO 1.9 29.83 52 -
06:06 64.9 47.5 1.9 SSO 1.9 29.83 53 -
06:11 64.9 47.8 1.9 SSO 1.9 29.83 54 -
06:16 65.1 48.6 1.9 SSO 1.9 29.83 55 -
06:21 65.5 48.9 1.9 SSO 1.9 29.83 55 -
06:26 65.8 49.3 0.6 SSO 1.9 29.83 55 -
06:31 65.8 49.3 0.6 SSO 3.1 29.83 55 -
06:36 66.0 49.5   calme 1.9 29.83 55 -
06:41 66.4 49.6 0.6 SSO 3.1 29.83 55 -
06:46 66.9 50.2   calme 1.2 29.83 55 -
06:51 67.8 50.5   calme 1.2 29.84 54 -
06:56 69.1 51.3   calme   29.83 53 -
07:01 69.6 51.3 0.6 SSO 1.2 29.84 52 -
07:06 70.3 51.8   calme 1.2 29.84 52 -
07:11 71.1 52.5   calme   29.84 52 -
07:16 72.0 52.3   calme   29.84 50 -
07:21 73.0 52.7   calme   29.84 49 -
07:26 74.1 52.5   calme   29.84 47 -
07:31 76.5 52.9   calme   29.84 44 -
07:36 77.7 53.4   calme   29.84 43 -
07:41 77.7 54.1   calme   29.84 44 -
07:46 77.2 54.1 0.6 SSO 1.2 29.84 45 -
07:51 76.5 54.7 1.9 SSO 1.9 29.84 47 -
07:56 75.7 54.1   calme 1.2 29.84 47 -
08:01 75.6 52.7 0.6 SSO 1.2 29.84 45 -
08:06 75.7 53.4 0.6 SSO 1.9 29.84 46 -
08:11 75.0 55.0 0.6 SSO 1.9 29.84 50 -
08:16 74.3 53.4 1.9 SSO 1.9 29.84 48 -
08:22 73.9 54.1 1.9 SSO 1.9 29.84 50 -
08:27 74.1 54.9   calme 1.2 29.84 51 -
08:32 74.5 55.2   calme 1.2 29.84 51 -
08:37 74.7 55.4 0.6 SSO 1.9 29.84 51 -
08:42 74.8 55.0 1.9 SSO 1.9 29.85 50 -
08:47 75.2 56.3 3.7 Sud 3.7 29.84 52 -
08:52 74.7 55.9 0.6 Sud 3.1 29.84 52 -
08:57 74.7 56.5 3.1 Sud 3.1 29.84 53 -
09:02 74.7 56.8 3.1 ESE 3.7 29.84 54 -
09:07 75.0 58.3 0.6 ESE 3.7 29.84 56 -
09:12 75.4 58.6 3.7 ESE 6.2 29.84 56 -
09:17 75.2 59.0 3.1 ESE 3.1 29.85 57 -
09:22 75.0 58.8 3.7 ESE 6.2 29.84 57 -
09:27 74.8 58.6 3.7 ESE 6.2 29.85 57 -
09:32 74.7 58.8 3.1 ESE 3.7 29.85 58 -
09:37 74.5 58.8 3.1 ESE 3.7 29.85 58 -
09:42 74.5 58.8 1.9 ESE 3.7 29.84 58 -
09:47 74.7 58.8 3.1 ESE 3.7 29.85 58 -
09:52 74.5 58.8 3.7 ESE 3.7 29.85 58 -
09:57 74.8 59.5 0.6 ESE 3.1 29.85 59 -
10:02 75.2 59.9 1.9 ESE 1.9 29.85 59 -
10:07 75.4 60.1 0.6 ESE 1.9 29.85 59 -
10:12 75.4 60.1 1.9 ESE 1.9 29.85 59 -
10:17 74.8 60.1 3.1 ESE 3.1 29.85 60 -
10:22 74.8 59.5 1.9 ESE 1.9 29.85 59 -
10:27 74.8 59.0 1.9 ESE 1.9 29.85 58 -
10:32 74.8 59.0 1.9 ESE 1.9 29.85 58 -
10:37 74.8 58.6 1.9 ESE 1.9 29.85 57 -
10:42 74.7 58.5 1.9 ESE 1.9 29.85 57 -
10:47 74.7 58.5 1.9 ESE 1.9 29.85 57 -
10:52 74.5 57.7 1.9 ESE 3.1 29.84 56 -
10:57 74.7 57.9 1.9 ESE 1.9 29.84 56 -
11:02 75.0 58.3 1.9 ESE 3.1 29.84 56 -
11:07 75.4 58.6 3.1 ESE 3.1 29.84 56 -
11:12 75.6 58.8 3.1 ESE 3.7 29.84 56 -
11:17 75.6 58.8 3.7 NNE 5.0 29.84 56 -
11:22 75.0 58.8 3.7 North 5.0 29.84 57 -
11:27 75.0 59.2 3.7 North 5.0 29.84 58 -
11:32 75.0 59.7 3.1 North 3.7 29.84 59 -
11:37 75.2 59.9 3.7 North 5.0 29.84 59 -
11:42 75.4 60.1 3.1 North 5.0 29.84 59 -
11:47 75.6 60.3 5.0 North 5.0 29.84 59 -
11:52 75.4 60.4 5.0 NNO 6.2 29.84 60 -
11:57 75.0 59.7 5.0 NNO 6.2 29.84 59 -
12:02 75.0 60.3 5.0 NNO 6.2 29.84 60 -
12:07 75.0 60.3 5.0 NNO 6.2 29.84 60 -
12:12 74.8 60.1 6.2 NNO 8.1 29.84 60 -
12:17 74.7 59.9 5.0 NNO 6.2 29.84 60 -
12:22 75.0 60.3 5.0 NNO 6.2 29.84 60 -
12:27 75.0 60.3 5.0 NNO 6.2 29.84 60 -
12:32 75.0 60.6 5.0 NNO 6.2 29.84 61 -
12:37 75.0 60.3 5.0 NNO 8.1 29.84 60 -
12:42 74.8 60.1 5.0 NNO 6.2 29.84 60 -
12:47 74.8 60.1 6.2 NNO 8.1 29.84 60 -
12:52 75.0 60.3 5.0 NNO 6.2 29.83 60 -
12:57 75.2 60.4 6.2 NNO 6.2 29.83 60 -
13:02 75.2 60.4 5.0 NNO 6.2 29.83 60 -
13:07 75.4 60.1 5.0 NNO 6.2 29.83 59 -
13:12 75.6 60.6 3.7 NNO 6.2 29.83 60 -
13:17 75.4 60.1 5.0 NNO 6.2 29.83 59 -
13:22 75.4 60.1 3.7 NNO 5.0 29.83 59 -
13:27 75.6 60.3 3.1 NNO 5.0 29.83 59 -
13:32 75.9 61.0 3.7 NNO 5.0 29.83 60 -
13:37 75.9 61.0 5.0 NNO 5.0 29.83 60 -
13:42 75.9 61.0 5.0 NNO 6.2 29.82 60 -
13:47 76.1 61.7 3.7 NNO 5.0 29.82 61 -
13:52 76.3 61.9 3.1 NNO 5.0 29.82 61 -
13:57 76.3 61.3 3.7 NNO 6.2 29.82 60 -
14:02 76.3 61.9 3.7 NNO 5.0 29.81 61 -
14:07 76.1 61.7 3.7 NNO 5.0 29.81 61 -
14:12 76.3 61.9 5.0 NNO 6.2 29.81 61 -
14:17 76.3 62.2 5.0 NNO 6.2 29.80 62 -
14:22 76.3 62.2 6.2 NNO 8.1 29.80 62 -
14:27 76.1 62.6 5.0 NNO 8.1 29.80 63 -
14:32 75.9 62.4 8.1 NNO 9.9 29.80 63 -
14:37 75.7 62.2 8.1 NNO 9.9 29.80 63 -
14:42 75.6 62.1 8.7 NNO 11.2 29.80 63 -
14:47 75.6 62.1 8.7 NNO 11.8 29.80 63 -
14:52 75.4 61.5 11.2 NNO 14.3 29.80 62 -
14:57 75.2 60.8 9.9 NNO 13.0 29.80 61 -
15:03 75.4 61.0 9.9 NNO 13.0 29.80 61 -
15:08 75.7 61.3 9.9 NNO 11.8 29.80 61 -
15:13 75.9 61.5 9.9 NNO 13.0 29.80 61 -
15:18 75.9 61.5 11.2 NNO 11.8 29.80 61 -
15:23 75.7 60.8 11.2 NNO 11.8 29.80 60 -
15:28 75.9 60.6 8.7 NNO 11.8 29.80 59 -
15:33 76.5 60.1 8.7 NNO 13.0 29.79 57 -
15:38 76.6 59.2 11.2 NO 14.3 29.79 55 -
15:43 77.0 59.5 8.7 NO 13.0 29.79 55 -
15:48 77.2 59.7 9.9 NNO 11.8 29.79 55 -
15:53 77.4 59.9 12.4 NNO 13.0 29.79 55 -
15:58 77.5 59.0 9.9 NO 11.8 29.79 53 -
16:03 77.9 58.3 13.0 NNO 13.0 29.79 51 -
16:08 78.4 57.7 11.2 NO 14.3 29.79 49 -
16:13 79.0 58.1 9.9 NNO 11.8 29.79 49 -
16:18 78.6 59.5 9.9 NO 13.0 29.79 52 -
16:23 78.6 59.5 11.2 NNO 13.0 29.78 52 -
16:28 78.6 59.0 8.7 NO 14.3 29.78 51 -
16:33 79.2 58.3 11.2 NO 13.0 29.79 49 -
16:38 79.5 58.6 14.9 NO 14.9 29.78 49 -
16:43 79.5 59.7 13.0 NNO 13.0 29.78 51 -
16:48 79.7 58.8 9.9 NO 16.2 29.78 49 -
16:53 80.1 58.6 8.7 NO 13.0 29.78 48 -
16:58 80.4 59.0 11.2 NO 14.9 29.78 48 -
17:03 80.8 58.6 6.8 NO 16.2 29.78 47 -
17:08 81.3 57.9 8.1 ONO 14.9 29.78 45 -
17:13 81.7 58.8 8.7 NNO 13.0 29.78 46 -
17:18 81.9 58.5 9.9 NNO 13.0 29.78 45 -
17:23 82.6 57.2 8.1 NNO 14.3 29.78 42 -
17:28 82.9 57.6 12.4 NNO 16.2 29.78 42 -
17:33 82.9 58.1 8.1 NNO 11.8 29.78 43 -
17:38 82.8 57.9 8.1 NNO 14.9 29.78 43 -
17:43 81.7 58.3 9.9 NO 14.9 29.78 45 -
17:48 81.0 58.3 9.9 NNO 14.9 29.78 46 -
17:53 80.2 58.8 12.4 NNO 13.0 29.78 48 -
17:58 80.1 58.6 9.9 NO 11.2 29.77 48 -
18:03 79.9 58.5 8.7 NNO 11.8 29.77 48 -
18:08 80.2 58.8 12.4 ONO 13.0 29.77 48 -
18:13 80.1 59.2 8.1 NO 9.9 29.77 49 -
18:18 80.2 57.6 6.2 NNO 9.3 29.77 46 -
18:23 81.3 57.4 9.9 NO 13.0 29.77 44 -
18:28 81.7 57.6 8.7 NO 11.8 29.77 44 -
18:33 81.9 57.2 8.7 ONO 14.9 29.77 43 -
18:38 82.2 56.1 8.1 ONO 13.0 29.77 41 -
18:43 82.4 55.6 11.2 ONO 11.2 29.77 40 -
18:48 82.6 55.8 1.9 ONO 13.0 29.77 40 -
18:53 82.6 55.8 6.8 ONO 9.3 29.77 40 -
18:58 82.8 55.9 6.8 ONO 9.3 29.77 40 -
19:03 83.1 55.6 8.7 NO 11.8 29.78 39 -
19:08 83.1 55.6 8.1 ONO 9.3 29.77 39 -
19:13 83.1 56.3 3.7 NO 11.8 29.77 40 -
19:18 82.6 55.0 5.0 NO 9.9 29.77 39 -
19:23 82.0 55.9 5.0 NNO 6.8 29.77 41 -
19:28 81.9 55.9 8.7 NO 11.2 29.77 41 -
19:33 81.3 55.4 3.7 NO 9.9 29.77 41 -
19:38 81.3 54.7 3.7 NNO 6.8 29.77 40 -
19:43 81.3 55.4   calme 3.7 29.78 41 -
19:48 81.7 55.0 3.1 NNO 5.0 29.77 40 -
19:53 81.3 55.4 3.7 NNO 5.0 29.78 41 -
19:58 81.3 56.7 1.9 North 3.7 29.78 43 -
20:03 80.4 55.9 5.0 NNO 5.0 29.78 43 -
20:08 80.2 55.0 1.9 NO 3.1 29.78 42 -
20:13 80.4 57.2 5.0 North 6.2 29.78 45 -
20:18 79.5 56.3 9.9 NNO 11.2 29.79 45 -
20:23 78.8 56.3 8.1 NNO 13.0 29.79 46 -
20:28 78.3 57.0 8.7 NNE 9.3 29.79 48 -
20:33 78.1 56.8 3.1 NNE 8.1 29.79 48 -
20:38 79.2 55.4 3.1 ENE 8.1 29.79 44 -
20:43 79.5 56.3 1.9 Est 5.0 29.79 45 -
20:48 79.3 56.8 3.1 Est 5.0 29.79 46 -
20:53 79.3 57.4 3.1 Est 5.0 29.79 47 -
20:58 79.2 57.7 1.9 Est 3.7 29.79 48 -
21:03 78.6 57.9 0.6 Est 3.1 29.79 49 -
21:08 78.4 57.7   calme 1.2 29.80 49 -
21:13 78.3 58.6 3.1 Est 3.7 29.80 51 -
21:19 77.9 58.8 1.9 NE 3.1 29.80 52 -
21:24 77.5 57.9   calme 1.9 29.80 51 -
21:29 77.4 58.3 3.1 NNO 5.0 29.80 52 -
21:34 77.0 58.1 1.9 North 5.0 29.80 52 -
21:39 76.6 57.2 1.9 North 3.1 29.80 51 -
21:44 76.5 57.0 0.6 North 3.7 29.81 51 -
21:49 76.6 56.7 1.9 North 6.2 29.81 50 -
21:54 76.6 56.1 3.1 NNO 3.7 29.81 49 -
21:59 76.6 55.4 3.1 NO 3.7 29.81 48 -
22:04 76.6 55.4 3.1 NO 3.7 29.82 48 -
22:09 76.5 55.4   calme   29.82 48 -
22:14 76.5 55.4   calme 1.2 29.82 48 -
22:19 76.5 55.9   calme 1.9 29.82 49 -
22:24 76.3 55.8   calme   29.82 49 -
22:29 75.9 54.9   calme 1.9 29.83 48 -
22:34 75.6 54.5 0.6 NO 1.9 29.83 48 -
22:39 75.2 54.7 0.6 ONO 3.1 29.82 49 -
22:44 74.8 54.3 0.6 ONO 1.9 29.83 49 -
22:49 74.5 54.1 0.6 ONO 1.9 29.82 49 -
22:54 74.1 54.3 0.6 ONO 1.9 29.82 50 -
22:59 73.9 54.1 1.9 ONO 3.1 29.82 50 -

Téléchargez votre copie de cet ensemble de données  à partir de WeatherUnderground

Nos données météo stockées sur Weather Underground